createdAt,value
2023-05-04T00:01:32.014Z,11.77
2023-05-04T00:04:01.908Z,10.60
2023-05-04T00:06:30.222Z,13.00
2023-05-04T00:08:58.320Z,13.93
2023-05-04T00:11:26.882Z,13.57
2023-05-04T00:13:55.075Z,13.30
2023-05-04T00:16:23.250Z,14.93
2023-05-04T00:18:51.387Z,12.60
2023-05-04T00:21:20.866Z,14.10
2023-05-04T00:23:49.080Z,12.93
2023-05-04T00:26:17.164Z,11.67
2023-05-04T00:28:45.277Z,13.93
2023-05-04T00:31:15.261Z,12.53
2023-05-04T00:33:43.554Z,14.20
2023-05-04T00:36:11.719Z,10.43
2023-05-04T00:38:50.190Z,14.07
2023-05-04T00:41:18.776Z,12.90
2023-05-04T00:43:47.627Z,11.10
2023-05-04T00:46:16.195Z,11.20
2023-05-04T00:48:46.529Z,14.07
2023-05-04T00:51:17.399Z,13.43
2023-05-04T00:53:46.200Z,11.73
2023-05-04T00:56:15.839Z,13.67
2023-05-04T00:58:44.212Z,12.67
2023-05-04T01:01:12.803Z,12.40
2023-05-04T01:03:41.183Z,13.13
2023-05-04T01:06:17.930Z,14.03
2023-05-04T01:08:53.714Z,13.00
2023-05-04T01:12:19.160Z,12.30
2023-05-04T01:14:49.688Z,11.80
2023-05-04T01:17:17.862Z,11.03
2023-05-04T01:19:46.002Z,13.83
2023-05-04T01:22:15.676Z,13.53
2023-05-04T01:24:43.780Z,12.20
2023-05-04T01:27:18.546Z,10.50
2023-05-04T01:29:52.858Z,14.37
2023-05-04T01:32:22.566Z,12.47
2023-05-04T01:34:50.704Z,11.10
2023-05-04T01:37:20.722Z,11.87
2023-05-04T01:39:48.893Z,12.17
2023-05-04T01:42:17.128Z,10.13
2023-05-04T01:44:45.586Z,10.90
2023-05-04T01:47:13.832Z,10.47
2023-05-04T01:49:41.952Z,13.40
2023-05-04T01:52:10.072Z,12.77
2023-05-04T01:54:39.723Z,9.83
2023-05-04T01:57:07.916Z,9.50
2023-05-04T01:59:36.378Z,12.30
2023-05-04T02:02:04.610Z,13.03
2023-05-04T02:04:32.846Z,12.17
2023-05-04T02:07:00.961Z,10.60
2023-05-04T02:09:29.447Z,12.43
2023-05-04T02:11:58.926Z,9.63
2023-05-04T02:22:28.560Z,12.73
2023-05-04T02:24:56.733Z,9.40
2023-05-04T02:27:26.238Z,10.93
2023-05-04T02:29:54.325Z,10.90
2023-05-04T02:32:22.401Z,8.87
2023-05-04T02:34:50.893Z,11.53
2023-05-04T02:37:19.629Z,12.33
2023-05-04T02:39:47.735Z,9.87
2023-05-04T02:42:15.846Z,10.87
2023-05-04T02:44:45.288Z,11.67
2023-05-04T02:47:13.454Z,9.67
2023-05-04T02:49:41.555Z,12.53
2023-05-04T02:52:09.631Z,13.27
2023-05-04T02:54:38.528Z,10.90
2023-05-04T02:57:07.119Z,13.10
2023-05-04T02:59:35.306Z,11.83
2023-05-04T03:07:25.712Z,9.60
2023-05-04T03:09:53.773Z,10.53
2023-05-04T03:12:21.841Z,9.90
2023-05-04T03:14:49.978Z,11.40
2023-05-04T03:17:18.078Z,11.57
2023-05-04T03:19:46.425Z,12.27
2023-05-04T03:22:14.531Z,11.60
2023-05-04T03:24:44.009Z,11.50
2023-05-04T03:27:12.360Z,11.40
2023-05-04T03:29:40.537Z,13.10
2023-05-04T03:32:08.682Z,10.53
2023-05-04T03:34:36.892Z,11.27
2023-05-04T03:37:05.064Z,14.10
2023-05-04T03:39:33.209Z,11.20
2023-05-04T03:42:02.681Z,12.27
2023-05-04T03:48:24.492Z,13.23
2023-05-04T03:50:52.618Z,10.70
2023-05-04T03:53:20.661Z,14.40
2023-05-04T03:55:48.807Z,11.33
2023-05-04T03:58:18.248Z,11.60
2023-05-04T04:00:46.297Z,10.97
2023-05-04T04:03:14.868Z,13.07
2023-05-04T04:05:43.176Z,12.67
2023-05-04T04:17:10.228Z,10.03
2023-05-04T04:19:39.717Z,12.50
2023-05-04T04:22:07.769Z,14.73
2023-05-04T04:24:35.841Z,13.60
2023-05-04T04:27:04.069Z,11.27
2023-05-04T04:29:33.790Z,12.07
2023-05-04T04:32:01.888Z,12.67
2023-05-04T04:34:29.948Z,12.70
2023-05-04T04:36:59.585Z,13.53
2023-05-04T04:39:27.740Z,10.73
2023-05-04T04:41:55.823Z,10.07
2023-05-04T04:44:23.866Z,11.97
2023-05-04T04:46:52.897Z,11.00
2023-05-04T04:49:20.956Z,11.23
2023-05-04T04:51:49.480Z,13.53
2023-05-04T04:54:18.886Z,12.17
2023-05-04T04:56:46.949Z,13.07
2023-05-04T04:59:15.067Z,16.53
2023-05-04T05:01:43.128Z,13.60
2023-05-04T05:04:11.226Z,11.73
2023-05-04T05:06:39.338Z,12.23
2023-05-04T05:09:07.461Z,11.37
2023-05-04T05:11:36.961Z,13.70
2023-05-04T05:14:05.048Z,10.67
2023-05-04T05:16:33.149Z,11.90
2023-05-04T05:19:01.264Z,12.93
2023-05-04T05:21:29.330Z,13.73
2023-05-04T05:23:57.391Z,11.50
2023-05-04T05:26:25.559Z,12.00
2023-05-04T05:28:54.985Z,10.90
2023-05-04T05:31:23.150Z,12.47
2023-05-04T05:33:51.920Z,11.77
2023-05-04T05:36:19.996Z,12.10
2023-05-04T05:38:50.257Z,9.33
2023-05-04T05:41:18.488Z,10.27
2023-05-04T05:43:46.634Z,10.77
2023-05-04T05:46:16.141Z,8.87
2023-05-04T05:48:44.212Z,8.23
2023-05-04T05:51:12.306Z,13.63
2023-05-04T05:53:40.377Z,13.60
2023-05-04T05:56:08.616Z,13.03
2023-05-04T05:58:36.647Z,8.07
2023-05-04T06:01:04.808Z,13.50
2023-05-04T06:03:34.388Z,9.27
2023-05-04T06:06:02.657Z,12.27
2023-05-04T06:08:31.188Z,15.37
2023-05-04T06:10:59.281Z,9.53
2023-05-04T06:13:27.419Z,9.67
2023-05-04T06:15:56.125Z,11.27
2023-05-04T06:18:24.211Z,7.87
2023-05-04T06:21:00.736Z,8.27
2023-05-04T06:23:29.649Z,7.80
2023-05-04T06:25:57.773Z,9.10
2023-05-04T06:28:25.986Z,9.60
2023-05-04T06:30:54.073Z,13.50
2023-05-04T06:33:22.308Z,8.57
2023-05-04T06:35:50.365Z,11.60
2023-05-04T06:53:43.686Z,10.33
2023-05-04T06:56:11.776Z,7.03
2023-05-04T06:58:39.921Z,7.50
2023-05-04T07:01:09.251Z,8.93
2023-05-04T07:03:37.595Z,8.13
2023-05-04T07:06:06.015Z,6.33
2023-05-04T07:08:34.837Z,7.55
2023-05-04T07:11:04.331Z,7.83
2023-05-04T07:13:32.521Z,6.03
2023-05-04T07:16:00.683Z,9.47
2023-05-04T07:18:28.854Z,7.63
2023-05-04T07:21:02.075Z,8.03
2023-05-04T07:23:39.469Z,6.47
2023-05-04T07:26:09.297Z,9.90
2023-05-04T07:28:38.626Z,7.10
2023-05-04T07:31:07.021Z,7.37
2023-05-04T07:33:35.093Z,6.77
2023-05-04T07:36:03.369Z,6.57
2023-05-04T07:38:31.483Z,6.27
2023-05-04T07:40:59.712Z,8.03
2023-05-04T07:43:29.181Z,7.87
2023-05-04T07:45:57.341Z,4.70
2023-05-04T07:48:26.535Z,7.13
2023-05-04T07:50:55.010Z,8.00
2023-05-04T07:53:25.584Z,7.75
2023-05-04T07:55:54.328Z,5.40
2023-05-04T07:58:22.562Z,5.30
2023-05-04T08:00:52.099Z,7.53
2023-05-04T08:03:20.183Z,7.80
2023-05-04T08:05:48.366Z,8.25
2023-05-04T08:08:16.431Z,6.80
2023-05-04T08:10:44.543Z,8.27
2023-05-04T08:13:12.775Z,6.63
2023-05-04T08:15:41.310Z,6.78
2023-05-04T08:18:10.813Z,8.52
2023-05-04T08:20:38.984Z,7.20
2023-05-04T08:23:07.355Z,6.18
2023-05-04T08:25:37.613Z,6.20
2023-05-04T08:28:06.588Z,10.52
2023-05-04T08:30:34.701Z,5.25
2023-05-04T08:33:02.810Z,7.40
2023-05-04T08:35:32.429Z,8.10
2023-05-04T08:38:01.456Z,6.78
2023-05-04T08:40:29.593Z,6.18
2023-05-04T08:42:58.531Z,8.27
2023-05-04T08:45:27.495Z,6.40
2023-05-04T08:47:55.621Z,6.70
2023-05-04T08:50:23.879Z,5.85
2023-05-04T08:52:54.243Z,5.28
2023-05-04T08:55:23.125Z,5.70
2023-05-04T08:57:51.852Z,7.82
2023-05-04T09:00:21.060Z,5.85
2023-05-04T09:02:51.386Z,4.55
2023-05-04T09:05:19.855Z,6.10
2023-05-04T09:07:48.840Z,6.95
2023-05-04T09:10:18.757Z,7.38
2023-05-04T09:12:47.254Z,5.93
2023-05-04T09:15:17.428Z,7.10
2023-05-04T09:20:25.768Z,7.72
2023-05-04T09:23:06.914Z,5.65
2023-05-04T09:25:47.426Z,8.68
2023-05-04T09:28:15.997Z,5.03
2023-05-04T09:30:44.532Z,10.45
2023-05-04T09:33:15.404Z,6.25
2023-05-04T09:35:45.472Z,5.75
2023-05-04T09:38:16.150Z,8.73
2023-05-04T09:44:40.119Z,7.20
2023-05-04T09:47:08.941Z,7.93
2023-05-04T09:49:38.078Z,7.60
2023-05-04T09:52:07.562Z,4.40
2023-05-04T09:54:38.796Z,7.47
2023-05-04T09:57:13.173Z,7.00
2023-05-04T09:59:43.488Z,7.88
2023-05-04T10:02:22.630Z,5.78
2023-05-04T10:04:52.658Z,6.97
2023-05-04T10:07:21.248Z,7.70
2023-05-04T10:09:51.421Z,6.60
2023-05-04T10:12:19.793Z,7.95
2023-05-04T10:14:49.324Z,7.15
2023-05-04T10:17:29.447Z,6.55
2023-05-04T10:20:10.713Z,7.82
2023-05-04T10:22:56.096Z,8.63
2023-05-04T10:25:53.423Z,5.65
2023-05-04T10:28:36.958Z,8.30
2023-05-04T10:31:07.530Z,7.10
2023-05-04T10:33:42.371Z,6.45
2023-05-04T10:36:11.697Z,8.32
2023-05-04T10:38:41.398Z,6.63
2023-05-04T10:41:16.490Z,8.38
2023-05-04T10:43:51.004Z,9.32
2023-05-04T10:46:21.908Z,9.27
2023-05-04T10:48:51.057Z,7.10
2023-05-04T10:51:20.365Z,10.10
2023-05-04T10:53:48.535Z,6.70
2023-05-04T10:56:24.593Z,6.03
2023-05-04T10:58:53.136Z,8.90
2023-05-04T11:01:23.202Z,7.07
2023-05-04T11:03:53.000Z,7.25
2023-05-04T11:06:23.897Z,10.63
2023-05-04T11:09:01.138Z,8.10
2023-05-04T11:11:29.302Z,7.82
2023-05-04T11:13:58.225Z,7.88
2023-05-04T11:16:28.600Z,6.40
2023-05-04T11:19:07.588Z,5.78
2023-05-04T11:21:35.730Z,7.20
2023-05-04T11:24:07.098Z,9.75
2023-05-04T11:26:47.235Z,7.40
2023-05-04T11:29:16.817Z,8.57
2023-05-04T11:31:55.402Z,6.03
2023-05-04T11:34:23.763Z,7.55
2023-05-04T11:36:54.955Z,8.45
2023-05-04T11:39:23.132Z,8.50
2023-05-04T11:41:51.676Z,13.57
2023-05-04T11:44:20.306Z,9.05
2023-05-04T11:46:51.779Z,9.55
2023-05-04T11:49:20.250Z,11.50
2023-05-04T11:51:48.781Z,9.07
2023-05-04T11:54:32.435Z,6.93
2023-05-04T11:57:01.798Z,9.05
2023-05-04T11:59:30.278Z,9.07
2023-05-04T12:01:59.852Z,9.95
2023-05-04T12:04:34.436Z,11.77
2023-05-04T12:07:07.926Z,8.43
2023-05-04T12:09:48.014Z,10.52
2023-05-04T12:12:19.015Z,16.92
2023-05-04T12:14:52.932Z,9.70
2023-05-04T12:17:37.385Z,9.25
2023-05-04T12:20:06.724Z,8.93
2023-05-04T12:22:35.841Z,7.78
2023-05-04T12:25:04.142Z,8.30
2023-05-04T12:27:33.257Z,7.57
2023-05-04T12:30:01.421Z,9.35
2023-05-04T12:32:37.290Z,7.82
2023-05-04T12:35:06.579Z,9.82
2023-05-04T12:37:34.948Z,8.85
2023-05-04T12:40:21.091Z,6.97
2023-05-04T12:42:55.802Z,10.80
2023-05-04T12:45:24.124Z,7.68
2023-05-04T12:47:53.934Z,9.15
2023-05-04T12:50:22.296Z,11.10
2023-05-04T12:52:50.654Z,8.75
2023-05-04T12:55:18.874Z,10.82
2023-05-04T12:57:47.050Z,8.65
2023-05-04T13:00:16.366Z,9.60
2023-05-04T13:02:44.581Z,9.85
2023-05-04T13:05:15.834Z,10.63
2023-05-04T13:07:47.413Z,7.90
2023-05-04T13:10:15.623Z,10.18
2023-05-04T13:12:46.108Z,10.13
2023-05-04T13:15:16.140Z,10.52
2023-05-04T13:17:44.498Z,11.57
2023-05-04T13:20:15.816Z,8.10
2023-05-04T13:22:46.238Z,10.77
2023-05-04T13:25:16.211Z,10.32
2023-05-04T13:27:44.361Z,10.65
2023-05-04T13:30:13.324Z,12.70
2023-05-04T13:32:42.107Z,11.25
2023-05-04T13:35:10.952Z,8.40
2023-05-04T13:37:40.421Z,10.85
2023-05-04T13:40:09.740Z,10.05
2023-05-04T13:42:38.118Z,13.57
2023-05-04T13:45:07.754Z,11.40
2023-05-04T13:47:37.079Z,8.57
2023-05-04T13:50:09.804Z,10.50
2023-05-04T13:52:38.023Z,10.52
2023-05-04T13:55:08.411Z,9.55
2023-05-04T13:57:36.811Z,12.05
2023-05-04T14:00:08.382Z,10.90
2023-05-04T14:02:36.860Z,10.82
2023-05-04T14:05:05.565Z,12.40
2023-05-04T14:07:35.019Z,17.58
2023-05-04T14:10:05.864Z,14.43
2023-05-04T14:12:35.734Z,9.98
2023-05-04T14:15:04.524Z,13.13
2023-05-04T14:17:33.073Z,11.18
2023-05-04T14:20:01.408Z,13.25
2023-05-04T14:22:31.210Z,11.63
2023-05-04T14:24:59.466Z,10.38
2023-05-04T14:27:27.886Z,10.57
2023-05-04T14:29:58.198Z,14.48
2023-05-04T14:32:26.524Z,10.95
2023-05-04T14:35:01.966Z,12.32
2023-05-04T14:37:30.059Z,13.52
2023-05-04T14:39:59.470Z,14.32
2023-05-04T14:42:28.213Z,11.25
2023-05-04T14:44:57.792Z,12.18
2023-05-04T14:47:27.530Z,12.30
2023-05-04T14:49:55.972Z,10.80
2023-05-04T14:52:27.978Z,12.70
2023-05-04T14:54:56.213Z,12.55
2023-05-04T14:57:24.253Z,13.48
2023-05-04T14:59:52.385Z,12.77
2023-05-04T15:02:22.103Z,9.40
2023-05-04T15:04:50.479Z,8.77
2023-05-04T15:07:20.952Z,9.55
2023-05-04T15:09:49.160Z,10.75
2023-05-04T15:12:17.561Z,10.65
2023-05-04T15:14:46.709Z,9.57
2023-05-04T15:17:17.227Z,12.40
2023-05-04T15:19:48.309Z,8.82
2023-05-04T15:22:16.399Z,8.63
2023-05-04T15:24:44.660Z,8.32
2023-05-04T15:27:12.801Z,8.68
2023-05-04T15:29:40.870Z,8.90
2023-05-04T15:32:08.919Z,10.98
2023-05-04T15:34:36.955Z,11.80
2023-05-04T15:37:06.579Z,10.52
2023-05-04T15:39:34.696Z,7.28
2023-05-04T15:42:03.519Z,7.18
2023-05-04T15:44:32.222Z,7.63
2023-05-04T15:47:00.587Z,9.02
2023-05-04T15:49:28.720Z,8.15
2023-05-04T15:51:56.799Z,7.10
2023-05-04T15:54:26.223Z,7.75
2023-05-04T15:56:54.327Z,7.93
2023-05-04T15:59:25.216Z,7.68
2023-05-04T16:01:53.933Z,10.07
2023-05-04T16:04:22.655Z,10.00
2023-05-04T16:06:50.787Z,6.60
2023-05-04T16:09:20.722Z,6.97
2023-05-04T16:11:50.222Z,8.38
2023-05-04T16:14:18.321Z,10.35
2023-05-04T16:16:46.569Z,9.10
2023-05-04T16:19:14.804Z,7.97
2023-05-04T16:21:42.852Z,9.55
2023-05-04T16:24:12.946Z,8.15
2023-05-04T16:26:41.156Z,9.15
2023-05-04T16:29:12.960Z,9.30
2023-05-04T16:31:41.065Z,8.00
2023-05-04T16:34:09.309Z,9.32
2023-05-04T16:36:37.392Z,9.52
2023-05-04T16:39:05.812Z,11.10
2023-05-04T16:41:33.901Z,7.25
2023-05-04T16:44:02.164Z,10.40
2023-05-04T16:46:31.766Z,12.27
2023-05-04T16:48:59.917Z,9.30
2023-05-04T16:51:28.057Z,8.70
2023-05-04T16:53:56.213Z,9.30
2023-05-04T16:56:24.428Z,8.70
2023-05-04T16:58:52.646Z,11.68
2023-05-04T17:01:21.094Z,11.93
2023-05-04T17:08:12.588Z,10.38
2023-05-04T17:10:41.221Z,10.05
2023-05-04T17:13:09.445Z,9.20
2023-05-04T17:15:37.631Z,8.23
2023-05-04T17:18:07.293Z,9.13
2023-05-04T17:20:35.505Z,9.50
2023-05-04T17:23:03.663Z,9.52
2023-05-04T17:25:34.080Z,11.65
2023-05-04T17:28:02.331Z,9.57
2023-05-04T17:30:30.655Z,10.07
2023-05-04T17:32:58.778Z,9.35
2023-05-04T17:35:27.123Z,10.68
2023-05-04T17:37:58.609Z,8.57
2023-05-04T17:40:27.758Z,8.80
2023-05-04T17:42:57.931Z,10.13
2023-05-04T17:45:26.011Z,11.85
2023-05-04T17:47:54.552Z,9.43
2023-05-04T17:50:23.016Z,9.20
2023-05-04T17:52:55.110Z,7.63
2023-05-04T17:55:25.377Z,6.72
2023-05-04T17:57:54.145Z,8.55
2023-05-04T18:00:24.067Z,7.18
2023-05-04T18:02:52.216Z,8.02
2023-05-04T18:05:20.606Z,6.95
2023-05-04T18:07:48.840Z,9.60
2023-05-04T18:10:16.988Z,10.25
2023-05-04T18:12:45.149Z,8.10
2023-05-04T18:15:13.502Z,6.32
2023-05-04T18:17:42.990Z,14.30
2023-05-04T18:20:13.174Z,8.70
2023-05-04T18:22:41.295Z,6.15
2023-05-04T18:25:10.197Z,8.85
2023-05-04T18:27:38.274Z,9.48
2023-05-04T18:30:08.473Z,15.68
2023-05-04T18:32:37.054Z,8.60
2023-05-04T18:35:07.690Z,7.63
2023-05-04T18:37:35.902Z,9.23
2023-05-04T18:40:14.172Z,7.30
2023-05-04T18:42:42.275Z,5.75
2023-05-04T18:45:13.327Z,7.80
2023-05-04T18:47:41.517Z,7.25
2023-05-04T18:50:12.086Z,7.70
2023-05-04T18:52:40.200Z,6.88
2023-05-04T18:55:08.629Z,10.10
2023-05-04T18:57:37.058Z,6.47
2023-05-04T19:00:09.089Z,7.10
2023-05-04T19:02:38.188Z,7.53
2023-05-04T19:05:10.396Z,7.47
2023-05-04T19:07:40.694Z,6.47
2023-05-04T19:10:10.468Z,7.25
2023-05-04T19:12:38.616Z,7.85
2023-05-04T19:15:07.964Z,7.25
2023-05-04T19:17:36.170Z,9.85
2023-05-04T19:20:04.676Z,9.90
2023-05-04T19:22:32.844Z,7.78
2023-05-04T19:25:04.074Z,7.35
2023-05-04T19:27:32.190Z,8.55
2023-05-04T19:30:00.463Z,8.48
2023-05-04T19:32:31.069Z,6.05
2023-05-04T19:34:59.401Z,8.23
2023-05-04T19:37:27.578Z,8.02
2023-05-04T19:39:55.820Z,7.65
2023-05-04T19:42:25.407Z,9.55
2023-05-04T19:44:53.522Z,10.85
2023-05-04T19:47:22.024Z,10.60
2023-05-04T20:05:50.573Z,9.07
2023-05-04T20:08:21.117Z,8.43
2023-05-04T20:10:49.188Z,9.05
2023-05-04T20:13:17.458Z,7.70
2023-05-04T20:15:46.016Z,8.73
2023-05-04T20:18:14.188Z,7.80
2023-05-04T20:20:42.337Z,9.80
2023-05-04T20:23:13.159Z,7.57
2023-05-04T20:25:42.888Z,6.00
2023-05-04T20:28:13.431Z,11.18
2023-05-04T20:30:41.706Z,8.70
2023-05-04T20:33:09.940Z,7.87
2023-05-04T20:35:38.097Z,9.02
2023-05-04T20:38:06.273Z,9.07
2023-05-04T20:40:34.436Z,8.35
2023-05-04T20:43:03.916Z,11.23
2023-05-04T20:45:32.262Z,6.60
2023-05-04T20:48:01.250Z,9.53
2023-05-04T20:50:29.371Z,9.35
2023-05-04T20:52:57.486Z,9.02
2023-05-04T20:55:25.900Z,8.57
2023-05-04T20:57:54.030Z,8.77
2023-05-04T21:00:24.466Z,8.60
2023-05-04T21:02:52.677Z,6.38
2023-05-04T21:05:20.825Z,10.07
2023-05-04T21:07:48.918Z,9.10
2023-05-04T21:10:17.025Z,9.23
2023-05-04T21:12:45.143Z,8.10
2023-05-04T21:15:13.396Z,8.17
2023-05-04T21:17:49.874Z,8.10
2023-05-04T21:20:18.218Z,9.33
2023-05-04T21:22:46.362Z,8.50
2023-05-04T21:25:14.469Z,10.90
2023-05-04T21:27:44.309Z,7.47
2023-05-04T21:30:13.007Z,8.27
2023-05-04T21:32:42.736Z,8.57
2023-05-04T21:35:11.262Z,6.50
2023-05-04T21:37:39.385Z,10.13
2023-05-04T21:40:09.863Z,8.73
2023-05-04T21:42:37.966Z,7.30
2023-05-04T21:45:07.043Z,7.82
2023-05-04T21:47:36.307Z,7.80
2023-05-04T21:50:06.839Z,8.77
2023-05-04T21:52:35.129Z,7.97
2023-05-04T21:55:03.262Z,7.93
2023-05-04T21:57:33.273Z,6.20
2023-05-04T22:00:02.017Z,5.35
2023-05-04T22:02:30.054Z,4.57
2023-05-04T22:04:58.435Z,7.30
2023-05-04T22:07:27.889Z,6.88
2023-05-04T22:09:56.042Z,5.50
2023-05-04T22:24:14.755Z,4.70
2023-05-04T22:27:38.381Z,6.10
2023-05-04T22:30:07.913Z,4.38
2023-05-04T22:32:36.361Z,4.22
2023-05-04T22:35:04.858Z,5.18
2023-05-04T22:37:32.949Z,4.43
2023-05-04T22:40:04.692Z,7.63
2023-05-04T22:42:33.232Z,7.07
2023-05-04T22:45:01.277Z,6.80
2023-05-04T22:47:29.396Z,4.57
2023-05-04T22:49:57.665Z,7.43
2023-05-04T22:52:25.942Z,7.25
2023-05-04T22:54:53.965Z,5.53
2023-05-04T22:57:23.422Z,5.47
2023-05-04T22:59:51.943Z,4.90
2023-05-04T23:02:20.042Z,4.35
2023-05-04T23:04:48.352Z,6.38
2023-05-04T23:07:16.564Z,6.00
2023-05-04T23:09:46.265Z,4.60
2023-05-04T23:12:15.145Z,4.47
2023-05-04T23:14:44.830Z,5.20
2023-05-04T23:17:13.514Z,5.00
2023-05-04T23:19:41.618Z,6.53
2023-05-04T23:22:09.703Z,5.40
2023-05-04T23:24:37.755Z,5.22
2023-05-04T23:27:05.820Z,8.45
2023-05-04T23:29:33.938Z,6.95
2023-05-04T23:32:03.832Z,6.18
2023-05-04T23:34:32.037Z,7.93
2023-05-04T23:37:00.072Z,7.30
2023-05-04T23:39:28.185Z,6.40
2023-05-04T23:41:56.275Z,6.77
2023-05-04T23:44:24.376Z,5.65
2023-05-04T23:46:52.506Z,7.35
2023-05-04T23:49:21.892Z,6.10
2023-05-04T23:51:49.955Z,6.05
2023-05-04T23:54:18.045Z,6.63
2023-05-04T23:56:46.129Z,4.90
2023-05-04T23:59:14.258Z,6.20
